Главная страница
METAR-TAF:

METAR-TAF

Аэропорты :

Leesburg, Виргиния, США

широта: 39-05N, долгота: 077-34W, высота над уровнем моря: 119 м

Текущие метеонаблюдения

Эта сводка был подготовлена 24 минут назад, в 12:15 UTC
Ветер 8 Узел от северо-западный
Температура 5°C
Влажность 75%
Давление 1025 hPa
Видимость: 16.1 км
Сплошная облачность на высоте 3100 фута

METAR: KJYO 171215Z AUTO 32008KT 10SM OVC031 05/01 A3026 RMK AO2

Время: 07:39 (12:39 UTC)


TAF: отсутствует

Метеонаблюдения и прогнозы для более 4000 аэропортов (сводки METAR и TAF).

Имеющиеся станции представлены на карте желтыми и красными точками.

Чтобы увидеть название станции, наведите на нее мышь.

Затем щелкните, чтобы увидеть метеонаблюдения и метеопрогнозы.

Управление картой: чтобы увеличить масштаб, щелкните зеленые кнопки с черным крестиком; чтобы уменьшить масштаб, щелкните зеленую кнопку с тире; для просмотра соседних карт щелкайте зеленые стрелки.


METAR-TAF: